Time;durP1;ratioP1;P1;durP2;ratioP2;P2;SDS_P1;SDS_P2;PMS_P1;PMS_P2;Temp;Humidity;BMP_temperature;BMP_pressure;BME280_temperature;BME280_humidity;BME280_pressure;Samples;Min_cycle;Max_cycle;Signal;HPM_P1;HPM_P2
2022/04/15 00:01:26;;;;;;;;;;;;;;;8.18;100.00;99617.91;5094708;28;19923;-78
2022/04/15 00:03:53;;;;;;;;;;;;;;;8.16;100.00;99612.63;5076842;28;19920;-80
2022/04/15 00:06:18;;;;;;;;;;;;;;;8.16;100.00;99612.63;5076364;28;19916;-81
2022/04/15 00:08:44;;;;;;;;;;;;;;;8.14;100.00;99606.47;5094952;28;19955;-81
2022/04/15 00:11:09;;;;;;;;;;;;;;;8.14;100.00;99602.94;5110385;28;19919;-78
2022/04/15 00:13:36;;;;;;;;;;;;;;;8.12;100.00;99597.66;5076482;28;19937;-82
2022/04/15 00:16:02;;;;;;;;;;;;;;;8.07;100.00;99588.78;5074958;28;19919;-80
2022/04/15 00:18:28;;;;;;;;;;;;;;;8.07;100.00;99583.53;5094182;28;20017;-81
2022/04/15 00:20:53;;;;;;;;;;;;;;;8.06;100.00;99574.81;5075859;28;20261;-79
2022/04/15 00:23:23;;;;;;;;;;;;;;;8.05;100.00;99557.28;5076500;28;20066;-79
2022/04/15 00:25:52;;;;;;;;;;;;;;;8.04;100.00;99554.63;5076048;28;19923;-79
2022/04/15 00:28:18;;;;;;;;;;;;;;;7.98;100.00;99541.34;5076144;28;19916;-80
2022/04/15 00:30:43;;;;;;;;;;;;;;;7.97;100.00;99518.59;5076321;28;19923;-80
2022/04/15 00:33:09;;;;;;;;;;;;;;;7.96;100.00;99488.03;5075853;28;20287;-78
2022/04/15 00:35:34;;;;;;;;;;;;;;;7.95;100.00;99441.69;5093997;28;20431;-81
2022/04/15 00:38:00;;;;;;;;;;;;;;;7.84;100.00;99415.22;5093612;28;19970;-79
2022/04/15 00:40:25;;;;;;;;;;;;;;;7.82;100.00;99391.59;5075691;28;19916;-81
2022/04/15 00:42:50;;;;;;;;;;;;;;;7.77;100.00;99381.84;5075503;28;19916;-79
2022/04/15 00:45:16;;;;;;;;;;;;;;;7.74;100.00;99369.56;5093992;28;20330;-79
2022/04/15 00:47:48;;;;;;;;;;;;;;;7.70;100.00;99354.59;5075872;28;20439;-78
2022/04/15 00:50:14;;;;;;;;;;;;;;;7.66;100.00;99331.78;5094087;28;19916;-78
2022/04/15 00:52:40;;;;;;;;;;;;;;;7.62;100.00;99332.59;5075767;28;20407;-78
2022/04/15 00:55:06;;;;;;;;;;;;;;;7.57;100.00;99319.38;5075282;28;20027;-79
2022/04/15 00:57:34;;;;;;;;;;;;;;;7.55;100.00;99321.06;5075152;28;20378;-78
2022/04/15 01:00:00;;;;;;;;;;;;;;;7.50;100.00;99297.41;5073499;28;19984;-81
2022/04/15 01:02:28;;;;;;;;;;;;;;;7.45;100.00;99291.16;5093203;28;19960;-80
2022/04/15 01:04:55;;;;;;;;;;;;;;;7.40;100.00;99284.94;5092765;28;19955;-81
2022/04/15 01:07:22;;;;;;;;;;;;;;;7.34;95.00;99279.56;5108902;28;20401;-80
2022/04/15 01:09:50;;;;;;;;;;;;;;;7.34;90.79;99275.19;5109368;28;19981;-79
2022/04/15 01:12:17;;;;;;;;;;;;;;;7.33;87.76;99275.16;5075790;28;19916;-81
2022/04/15 01:14:44;;;;;;;;;;;;;;;7.29;85.80;99275.94;5075865;28;19916;-79
2022/04/15 01:17:10;;;;;;;;;;;;;;;7.26;83.51;99261.03;5109160;28;19951;-80
2022/04/15 01:19:35;;;;;;;;;;;;;;;7.26;82.07;99257.56;5094027;28;19939;-79
2022/04/15 01:22:02;;;;;;;;;;;;;;;7.21;81.38;99278.38;5092977;28;19920;-79
2022/04/15 01:24:31;;;;;;;;;;;;;;;7.21;80.60;99285.34;5075907;28;19927;-78
2022/04/15 01:26:57;;;;;;;;;;;;;;;7.19;79.95;99283.59;5107373;28;20581;-78
2022/04/15 01:29:25;;;;;;;;;;;;;;;7.18;79.80;99289.66;5092581;28;19919;-80
2022/04/15 01:31:50;;;;;;;;;;;;;;;7.19;79.79;99294.06;5074871;28;19971;-78
2022/04/15 01:34:19;;;;;;;;;;;;;;;7.29;79.36;99297.78;5058718;28;19959;-79
2022/04/15 01:36:44;;;;;;;;;;;;;;;7.38;78.84;99289.25;5075363;28;20376;-80
2022/04/15 01:39:10;;;;;;;;;;;;;;;7.42;78.57;99270.13;5075065;28;19921;-79
2022/04/15 01:41:39;;;;;;;;;;;;;;;7.43;78.22;99266.69;5075428;28;19916;-82
2022/04/15 01:44:15;;;;;;;;;;;;;;;7.48;77.50;99266.78;5075493;28;19916;-78
2022/04/15 01:46:40;;;;;;;;;;;;;;;7.47;76.81;99249.28;5075123;28;19959;-78
2022/04/15 01:49:07;;;;;;;;;;;;;;;7.47;76.38;99254.53;5109025;28;19920;-81
2022/04/15 01:51:35;;;;;;;;;;;;;;;7.46;75.82;99242.31;5093328;28;19923;-81
2022/04/15 01:54:01;;;;;;;;;;;;;;;7.50;75.17;99229.31;5074733;28;19966;-79
2022/04/15 01:56:26;;;;;;;;;;;;;;;7.58;74.58;99202.38;5075118;28;19962;-79
2022/04/15 01:58:52;;;;;;;;;;;;;;;7.45;74.41;99182.91;5074615;28;19931;-81
2022/04/15 02:01:17;;;;;;;;;;;;;;;7.37;74.31;99224.63;5075063;28;19916;-81
2022/04/15 02:03:42;;;;;;;;;;;;;;;7.36;74.56;99230.72;5058496;28;19920;-78
2022/04/15 02:06:08;;;;;;;;;;;;;;;7.30;74.32;99238.44;5092408;28;20006;-79
2022/04/15 02:08:33;;;;;;;;;;;;;;;7.36;74.07;99235.94;5075029;28;19916;-82
2022/04/15 02:10:58;;;;;;;;;;;;;;;7.37;73.96;99253.44;5110227;28;20287;-82
2022/04/15 02:13:25;;;;;;;;;;;;;;;7.39;73.65;99288.41;5112593;28;19923;-79
2022/04/15 02:15:51;;;;;;;;;;;;;;;7.40;73.30;99315.50;5096647;28;19958;-79
2022/04/15 02:18:16;;;;;;;;;;;;;;;7.43;72.90;99340.00;5112798;28;19916;-80
2022/04/15 02:20:41;;;;;;;;;;;;;;;7.43;72.64;99340.00;5078758;28;20397;-79
2022/04/15 02:23:07;;;;;;;;;;;;;;;7.50;72.35;99323.59;5078361;28;19919;-80
2022/04/15 02:25:32;;;;;;;;;;;;;;;7.57;72.08;99290.56;5096788;28;19917;-80
2022/04/15 02:27:57;;;;;;;;;;;;;;;7.60;71.90;99274.00;5095999;28;20640;-79
2022/04/15 02:30:22;;;;;;;;;;;;;;;7.67;71.62;99252.34;5078226;28;19923;-79
2022/04/15 02:32:48;;;;;;;;;;;;;;;7.62;71.49;99233.03;5096611;28;19916;-78
2022/04/15 02:35:15;;;;;;;;;;;;;;;7.58;71.35;99205.00;5078320;28;20006;-78
2022/04/15 02:37:40;;;;;;;;;;;;;;;7.61;71.20;99173.63;5061819;28;19920;-81
2022/04/15 02:40:06;;;;;;;;;;;;;;;7.60;71.07;99154.41;5096276;28;19934;-79
2022/04/15 02:42:32;;;;;;;;;;;;;;;7.59;71.00;99117.72;5095909;28;19951;-79
2022/04/15 02:44:57;;;;;;;;;;;;;;;7.60;70.88;99102.03;5078123;28;19959;-81
2022/04/15 02:47:22;;;;;;;;;;;;;;;7.61;70.84;99084.56;5078391;28;19917;-79
2022/04/15 02:49:48;;;;;;;;;;;;;;;7.63;70.78;99069.75;5111695;28;20291;-78
2022/04/15 02:52:13;;;;;;;;;;;;;;;7.68;70.79;99045.41;5112037;28;20344;-78
2022/04/15 02:54:39;;;;;;;;;;;;;;;7.69;70.82;99030.56;5096349;28;19916;-81
2022/04/15 02:57:05;;;;;;;;;;;;;;;7.75;70.81;99017.59;5076756;28;19916;-79
2022/04/15 02:59:30;;;;;;;;;;;;;;;7.72;70.87;99005.34;5077924;28;20015;-79
2022/04/15 03:01:55;;;;;;;;;;;;;;;7.65;71.05;99015.66;5061347;28;19963;-81
2022/04/15 03:04:20;;;;;;;;;;;;;;;7.69;71.23;99028.84;5077736;28;20249;-81
2022/04/15 03:06:46;;;;;;;;;;;;;;;7.76;71.37;99019.34;5077765;28;19962;-79
2022/04/15 03:09:11;;;;;;;;;;;;;;;7.80;71.50;99018.56;5095493;28;19916;-79
2022/04/15 03:11:38;;;;;;;;;;;;;;;7.81;71.71;99030.78;5077719;28;19945;-79
2022/04/15 03:14:04;;;;;;;;;;;;;;;7.83;71.96;99038.69;5077582;28;19952;-79
2022/04/15 03:16:39;;;;;;;;;;;;;;;7.80;72.25;99042.16;5095553;28;19920;-81
2022/04/15 03:19:04;;;;;;;;;;;;;;;7.85;72.40;99045.72;5111530;28;19916;-80
2022/04/15 03:21:30;;;;;;;;;;;;;;;7.82;72.71;99064.00;5076660;28;19927;-80
2022/04/15 03:24:03;;;;;;;;;;;;;;;7.83;72.98;99071.03;5075625;28;20369;-78
2022/04/15 03:26:29;;;;;;;;;;;;;;;7.86;73.25;99078.94;5060868;28;19981;-78
2022/04/15 03:28:54;;;;;;;;;;;;;;;7.81;73.69;99098.94;5077782;28;20403;-78
2022/04/15 03:31:19;;;;;;;;;;;;;;;7.85;74.06;99102.50;5112483;28;19926;-77
2022/04/15 03:33:45;;;;;;;;;;;;;;;7.80;74.46;99123.38;5112707;28;19943;-77
2022/04/15 03:36:10;;;;;;;;;;;;;;;7.85;74.81;99121.72;5078426;28;19923;-81
2022/04/15 03:38:35;;;;;;;;;;;;;;;7.84;75.31;99134.78;5078039;28;20432;-80
2022/04/15 03:41:01;;;;;;;;;;;;;;;7.75;75.98;99156.44;5094394;28;20364;-78
2022/04/15 03:43:27;;;;;;;;;;;;;;;7.78;76.34;99172.22;5109319;28;20363;-79
2022/04/15 03:45:52;;;;;;;;;;;;;;;7.81;76.64;99172.28;5076862;28;19920;-79
2022/04/15 03:48:18;;;;;;;;;;;;;;;7.81;76.95;99190.63;5094889;28;19923;-78
2022/04/15 03:50:43;;;;;;;;;;;;;;;7.84;77.26;99195.94;5077005;28;19916;-79
2022/04/15 03:53:16;;;;;;;;;;;;;;;7.84;77.64;99208.19;5094339;28;19924;-79
2022/04/15 03:55:41;;;;;;;;;;;;;;;7.85;78.85;99204.72;5076803;28;19982;-81
2022/04/15 03:58:07;;;;;;;;;;;;;;;7.80;80.16;99217.72;5076138;28;19920;-78
2022/04/15 04:00:32;;;;;;;;;;;;;;;7.74;81.29;99246.41;5094864;28;19920;-79
2022/04/15 04:02:58;;;;;;;;;;;;;;;7.67;82.60;99268.06;5094434;28;19969;-79
2022/04/15 04:05:24;;;;;;;;;;;;;;;7.70;83.11;99274.25;5075614;28;19962;-80
2022/04/15 04:07:50;;;;;;;;;;;;;;;7.77;84.54;99271.78;5094251;28;19916;-78
2022/04/15 04:10:16;;;;;;;;;;;;;;;7.79;85.99;99276.22;5076328;28;19920;-79
2022/04/15 04:12:42;;;;;;;;;;;;;;;7.75;87.88;99292.69;5076707;28;20351;-78
2022/04/15 04:15:08;;;;;;;;;;;;;;;7.75;89.32;99307.56;5059526;28;19921;-78
2022/04/15 04:17:34;;;;;;;;;;;;;;;7.73;92.84;99312.75;5059791;28;19924;-79
2022/04/15 04:19:59;;;;;;;;;;;;;;;7.74;96.48;99330.25;5093820;28;20373;-79
2022/04/15 04:22:29;;;;;;;;;;;;;;;7.74;99.50;99340.75;5110187;28;19920;-77
2022/04/15 04:24:57;;;;;;;;;;;;;;;7.68;100.00;99353.69;5058992;28;19965;-78
2022/04/15 04:27:22;;;;;;;;;;;;;;;7.71;100.00;99361.63;5094129;28;19942;-78
2022/04/15 04:29:48;;;;;;;;;;;;;;;7.66;100.00;99368.47;5059181;28;19924;-77
2022/04/15 04:32:18;;;;;;;;;;;;;;;7.65;100.00;99385.06;5094227;28;19923;-78
2022/04/15 04:34:47;;;;;;;;;;;;;;;7.59;100.00;99404.13;5093907;28;20451;-80
2022/04/15 04:37:12;;;;;;;;;;;;;;;7.65;100.00;99411.25;5075901;28;19974;-78
2022/04/15 04:39:39;;;;;;;;;;;;;;;7.70;100.00;99410.50;5075668;28;20382;-80
2022/04/15 04:42:05;;;;;;;;;;;;;;;7.64;100.00;99425.19;5094023;28;19959;-83
2022/04/15 04:44:45;;;;;;;;;;;;;;;7.53;100.00;99457.25;5093412;28;19950;-79
2022/04/15 04:47:11;;;;;;;;;;;;;;;7.59;100.00;99459.13;5075891;28;19931;-81
2022/04/15 04:49:37;;;;;;;;;;;;;;;7.59;100.00;99466.13;5093564;28;19923;-80
2022/04/15 04:52:03;;;;;;;;;;;;;;;7.49;100.00;99476.34;5075366;28;19923;-82
2022/04/15 04:54:37;;;;;;;;;;;;;;;7.54;100.00;99489.56;5059058;28;19920;-80
2022/04/15 04:57:03;;;;;;;;;;;;;;;7.54;100.00;99489.56;5075043;28;19916;-81
2022/04/15 04:59:29;;;;;;;;;;;;;;;7.54;100.00;99490.44;5093784;28;19916;-82
2022/04/15 05:01:55;;;;;;;;;;;;;;;7.65;100.00;99495.09;5093300;28;19923;-83
2022/04/15 05:04:26;;;;;;;;;;;;;;;7.63;100.00;99507.25;5075284;28;19920;-83
2022/04/15 05:06:52;;;;;;;;;;;;;;;7.66;100.00;99509.94;5109223;28;19920;-82
2022/04/15 05:09:21;;;;;;;;;;;;;;;7.64;100.00;99522.13;5075308;28;20002;-81
2022/04/15 05:11:46;;;;;;;;;;;;;;;7.70;100.00;99522.31;5075383;28;19916;-79
2022/04/15 05:14:12;;;;;;;;;;;;;;;7.75;100.00;99527.66;5093343;28;19916;-80
2022/04/15 05:16:38;;;;;;;;;;;;;;;7.64;100.00;99543.09;5074286;28;19916;-79
2022/04/15 05:19:03;;;;;;;;;;;;;;;7.67;100.00;99546.69;5075211;28;19923;-79
2022/04/15 05:21:29;;;;;;;;;;;;;;;7.67;100.00;99556.28;5108837;28;19916;-79
2022/04/15 05:23:54;;;;;;;;;;;;;;;7.72;100.00;99558.19;5092799;28;19965;-80
2022/04/15 05:26:20;;;;;;;;;;;;;;;7.70;100.00;99579.94;5092940;28;19963;-79
2022/04/15 05:28:46;;;;;;;;;;;;;;;7.71;100.00;99589.59;5108905;28;19920;-83
2022/04/15 05:31:12;;;;;;;;;;;;;;;7.75;100.00;99599.28;5074778;28;20171;-79
2022/04/15 05:33:43;;;;;;;;;;;;;;;7.80;100.00;99608.19;5093056;28;19970;-78
2022/04/15 05:36:08;;;;;;;;;;;;;;;7.78;100.00;99622.09;5074591;28;20375;-81
2022/04/15 05:38:33;;;;;;;;;;;;;;;7.83;100.00;99633.56;5074732;28;19918;-77
2022/04/15 05:41:02;;;;;;;;;;;;;;;7.82;100.00;99640.56;5074637;28;19922;-82
2022/04/15 05:43:29;;;;;;;;;;;;;;;7.80;100.00;99655.38;5091964;28;19971;-79
2022/04/15 05:45:57;;;;;;;;;;;;;;;7.86;100.00;99663.41;5058972;28;19920;-78
2022/04/15 05:48:22;;;;;;;;;;;;;;;7.87;100.00;99674.75;5062199;28;19920;-79
2022/04/15 05:50:48;;;;;;;;;;;;;;;7.86;100.00;99694.84;5078097;28;19930;-79
2022/04/15 05:53:13;;;;;;;;;;;;;;;7.90;100.00;99716.78;5058424;28;20055;-78
2022/04/15 05:55:38;;;;;;;;;;;;;;;7.85;100.00;99724.50;5073957;28;20015;-80
2022/04/15 05:58:04;;;;;;;;;;;;;;;7.94;100.00;99730.84;5074475;28;19916;-77
2022/04/15 06:00:29;;;;;;;;;;;;;;;7.95;100.00;99743.13;5074990;28;20440;-77
2022/04/15 06:02:56;;;;;;;;;;;;;;;7.97;100.00;99758.06;5075087;28;20007;-80
2022/04/15 06:05:24;;;;;;;;;;;;;;;8.00;100.00;99760.78;5074713;28;19963;-78
2022/04/15 06:07:49;;;;;;;;;;;;;;;8.01;100.00;99773.03;5074917;28;20319;-77
2022/04/15 06:10:15;;;;;;;;;;;;;;;7.95;100.00;99793.81;5075673;28;19917;-76
2022/04/15 06:13:04;;;;;;;;;;;;;;;7.91;100.00;99810.31;5077832;28;20280;-76
2022/04/15 06:15:33;;;;;;;;;;;;;;;7.95;100.00;99819.16;5086368;28;20372;-77
2022/04/15 06:18:02;;;;;;;;;;;;;;;8.05;100.00;99823.84;5108126;28;20015;-77
2022/04/15 06:20:28;;;;;;;;;;;;;;;7.96;100.00;99849.78;5082803;28;20010;-77
2022/04/15 06:22:57;;;;;;;;;;;;;;;7.84;100.00;99872.13;5094601;28;20354;-77
2022/04/15 06:25:23;;;;;;;;;;;;;;;7.87;100.00;99885.31;5085170;28;20336;-77
2022/04/15 06:27:49;;;;;;;;;;;;;;;7.99;100.00;99891.81;5082750;28;20016;-77
2022/04/15 06:30:15;;;;;;;;;;;;;;;7.97;100.00;99906.59;5070065;28;19923;-77
2022/04/15 06:32:40;;;;;;;;;;;;;;;7.96;100.00;99925.78;5074211;28;19924;-76
2022/04/15 06:35:06;;;;;;;;;;;;;;;8.08;100.00;99923.56;5076048;28;19920;-78
2022/04/15 06:37:32;;;;;;;;;;;;;;;8.12;100.00;99938.53;5075924;28;19933;-76
2022/04/15 06:39:57;;;;;;;;;;;;;;;8.21;100.00;99938.81;5091394;28;20331;-77
2022/04/15 06:42:24;;;;;;;;;;;;;;;8.17;100.00;99960.56;5095962;28;20257;-77
2022/04/15 06:44:53;;;;;;;;;;;;;;;8.13;100.00;99979.66;5077219;28;19920;-77
2022/04/15 06:47:19;;;;;;;;;;;;;;;8.05;100.00;100008.25;5094381;28;19951;-79
2022/04/15 06:49:45;;;;;;;;;;;;;;;8.05;100.00;100023.97;5095843;28;19923;-77
2022/04/15 06:52:11;;;;;;;;;;;;;;;8.03;100.00;100035.25;5094261;28;19931;-76
2022/04/15 06:54:36;;;;;;;;;;;;;;;8.10;100.00;100052.97;5094450;28;19916;-77
2022/04/15 06:57:01;;;;;;;;;;;;;;;8.13;100.00;100063.56;5093279;28;19951;-78
2022/04/15 06:59:27;;;;;;;;;;;;;;;8.30;100.00;100071.06;5093984;28;20375;-76
2022/04/15 07:01:54;;;;;;;;;;;;;;;8.31;100.00;100086.00;5095021;28;19916;-77
2022/04/15 07:04:20;;;;;;;;;;;;;;;8.32;100.00;100106.16;5093695;28;20366;-79
2022/04/15 07:06:45;;;;;;;;;;;;;;;8.37;100.00;100125.53;5094711;28;19916;-78
2022/04/15 07:09:12;;;;;;;;;;;;;;;8.44;100.00;100130.19;5093611;28;19925;-78
2022/04/15 07:11:37;;;;;;;;;;;;;;;8.59;100.00;100146.44;5094167;28;19973;-76
2022/04/15 07:14:05;;;;;;;;;;;;;;;8.54;100.00;100166.38;5093686;28;19920;-79
2022/04/15 07:16:30;;;;;;;;;;;;;;;8.55;100.00;100196.16;5095065;28;20357;-78
2022/04/15 07:18:56;;;;;;;;;;;;;;;8.70;100.00;100214.13;5094925;28;19924;-78
2022/04/15 07:21:22;;;;;;;;;;;;;;;8.86;100.00;100234.81;5093371;28;19916;-77
2022/04/15 07:23:48;;;;;;;;;;;;;;;8.79;100.00;100275.72;5093266;28;19916;-77
2022/04/15 07:26:13;;;;;;;;;;;;;;;8.82;100.00;100305.53;5093518;28;19939;-77
2022/04/15 07:28:39;;;;;;;;;;;;;;;8.86;100.00;100346.81;5093104;28;19955;-77
2022/04/15 07:31:05;;;;;;;;;;;;;;;8.83;100.00;100386.09;5093294;28;19916;-78
2022/04/15 07:33:31;;;;;;;;;;;;;;;8.91;100.00;100422.28;5094459;28;19920;-78
2022/04/15 07:35:56;;;;;;;;;;;;;;;9.10;100.00;100462.31;5094208;28;20253;-77
2022/04/15 07:38:22;;;;;;;;;;;;;;;9.08;100.00;100496.41;5093565;28;19919;-77
2022/04/15 07:40:48;;;;;;;;;;;;;;;9.23;100.00;100529.31;5092999;28;19931;-78
2022/04/15 07:43:19;;;;;;;;;;;;;;;8.99;100.00;100585.38;5094182;28;19916;-78
2022/04/15 07:45:45;;;;;;;;;;;;;;;9.05;100.00;100611.00;5094194;28;19955;-78
2022/04/15 07:48:12;;;;;;;;;;;;;;;9.19;100.00;100627.28;5093005;28;19920;-78
2022/04/15 07:50:38;;;;;;;;;;;;;;;9.25;100.00;100649.41;5093297;28;19920;-77
2022/04/15 07:53:05;;;;;;;;;;;;;;;9.14;100.00;100675.28;5108329;28;19927;-77
2022/04/15 07:55:31;;;;;;;;;;;;;;;9.34;100.00;100678.69;5079511;28;19923;-78
2022/04/15 07:57:56;;;;;;;;;;;;;;;9.66;100.00;100684.25;5113835;28;20286;-77
2022/04/15 08:00:21;;;;;;;;;;;;;;;9.93;100.00;100711.47;5096090;28;19916;-77
2022/04/15 08:02:47;;;;;;;;;;;;;;;10.07;100.00;100721.69;5095332;28;20026;-76
2022/04/15 08:05:13;;;;;;;;;;;;;;;10.01;100.00;100774.06;5095670;28;20000;-77
2022/04/15 08:07:38;;;;;;;;;;;;;;;9.88;100.00;100821.78;5095977;28;19947;-76
2022/04/15 08:10:05;;;;;;;;;;;;;;;10.02;100.00;100840.72;5111831;28;19965;-78
2022/04/15 08:12:30;;;;;;;;;;;;;;;10.32;100.00;100858.53;5095630;28;19977;-76
2022/04/15 08:14:56;;;;;;;;;;;;;;;10.24;100.00;100895.97;5095817;28;19912;-76
2022/04/15 08:17:21;;;;;;;;;;;;;;;10.13;100.00;100939.41;5095248;28;19915;-77
2022/04/15 08:19:46;;;;;;;;;;;;;;;10.04;100.00;100958.34;5113859;28;19973;-77
2022/04/15 08:22:12;;;;;;;;;;;;;;;9.92;100.00;100980.63;5095391;28;20573;-76
2022/04/15 08:24:45;;;;;;;;;;;;;;;10.08;100.00;100988.28;5095383;28;20324;-76
2022/04/15 08:27:10;;;;;;;;;;;;;;;9.78;100.00;101024.78;5113223;28;19920;-78
2022/04/15 08:29:38;;;;;;;;;;;;;;;9.92;100.00;101039.41;5113423;28;19916;-77
2022/04/15 08:32:05;;;;;;;;;;;;;;;9.67;100.00;101069.91;5113506;28;20363;-77
2022/04/15 08:34:31;;;;;;;;;;;;;;;9.78;100.00;101078.25;5095762;28;19927;-78
2022/04/15 08:36:56;;;;;;;;;;;;;;;9.94;100.00;101085.06;5113448;28;19916;-78
2022/04/15 08:39:21;;;;;;;;;;;;;;;10.14;100.00;101092.91;5113804;28;19923;-78
2022/04/15 08:41:46;;;;;;;;;;;;;;;10.14;100.00;101124.50;5113184;28;19915;-77
2022/04/15 08:44:12;;;;;;;;;;;;;;;10.01;100.00;101166.06;5113753;28;19998;-78
2022/04/15 08:46:38;;;;;;;;;;;;;;;10.19;100.00;101181.75;5095263;28;20367;-78
2022/04/15 08:49:05;;;;;;;;;;;;;;;10.24;100.00;101198.63;5095064;28;19916;-77
2022/04/15 08:51:31;;;;;;;;;;;;;;;10.56;100.00;101204.38;5113424;28;19984;-76
2022/04/15 08:54:00;;;;;;;;;;;;;;;10.39;100.00;101239.63;5094435;28;20335;-77
2022/04/15 08:56:25;;;;;;;;;;;;;;;10.55;100.00;101243.81;5095074;28;19943;-79
2022/04/15 08:58:50;;;;;;;;;;;;;;;11.08;100.00;101225.81;5077788;28;20488;-80
2022/04/15 09:01:16;;;;;;;;;;;;;;;11.29;100.00;101275.81;5112777;28;19923;-79
2022/04/15 09:03:42;;;;;;;;;;;;;;;10.96;100.00;101311.41;5095552;28;19916;-79
2022/04/15 09:06:15;;;;;;;;;;;;;;;10.95;100.00;101340.34;5094531;28;20291;-77
2022/04/15 09:08:59;;;;;;;;;;;;;;;11.19;100.00;101345.75;5095343;28;20303;-77
2022/04/15 09:11:31;;;;;;;;;;;;;;;11.04;100.00;101372.34;5095218;28;19912;-77
2022/04/15 09:14:03;;;;;;;;;;;;;;;11.32;100.00;101365.59;5094775;28;20589;-77
2022/04/15 09:16:28;;;;;;;;;;;;;;;11.13;100.00;101399.09;5113675;28;19919;-78
2022/04/15 09:18:54;;;;;;;;;;;;;;;11.50;100.00;101405.00;5113003;28;19916;-79
2022/04/15 09:21:27;;;;;;;;;;;;;;;11.77;100.00;101414.88;5094364;28;19915;-79
2022/04/15 09:24:03;;;;;;;;;;;;;;;11.80;100.00;101446.66;5082125;28;19920;-82
2022/04/15 09:26:29;;;;;;;;;;;;;;;11.91;100.00;101465.56;5075107;28;19965;-80
2022/04/15 09:28:55;;;;;;;;;;;;;;;11.65;100.00;101495.34;5092386;28;19920;-77
2022/04/15 09:31:21;;;;;;;;;;;;;;;11.42;100.00;101511.88;5091853;28;19912;-78
2022/04/15 09:34:00;;;;;;;;;;;;;;;11.43;100.00;101509.31;5073588;28;20381;-77
2022/04/15 09:36:26;;;;;;;;;;;;;;;11.54;100.00;101507.16;5092375;28;19912;-79
2022/04/15 09:38:55;;;;;;;;;;;;;;;11.70;100.00;101507.78;5091947;28;19922;-78
2022/04/15 09:41:20;;;;;;;;;;;;;;;11.70;100.00;101527.19;5073854;28;20403;-78
2022/04/15 09:43:56;;;;;;;;;;;;;;;11.96;100.00;101523.03;5074184;28;19948;-79
2022/04/15 09:46:21;;;;;;;;;;;;;;;11.82;100.00;101540.91;5070356;28;19920;-80
2022/04/15 09:49:07;;;;;;;;;;;;;;;11.62;100.00;101550.59;5092370;28;19923;-78
2022/04/15 09:51:39;;;;;;;;;;;;;;;11.54;100.00;101551.09;5074857;28;20337;-81
2022/04/15 09:54:08;;;;;;;;;;;;;;;11.46;100.00;101572.75;5074325;28;19920;-77
2022/04/15 09:56:35;;;;;;;;;;;;;;;11.74;100.00;101568.66;5074710;28;19916;-77
2022/04/15 09:59:03;;;;;;;;;;;;;;;11.93;100.00;101575.69;5074337;28;20364;-77
2022/04/15 10:01:30;;;;;;;;;;;;;;;11.99;100.00;101604.97;5074731;28;19917;-78
2022/04/15 10:03:58;;;;;;;;;;;;;;;11.84;100.00;101628.94;5091496;28;20372;-79
2022/04/15 10:06:24;;;;;;;;;;;;;;;11.98;100.00;101626.03;5074551;28;19917;-78
2022/04/15 10:08:50;;;;;;;;;;;;;;;12.30;100.00;101629.09;5073814;28;20374;-76
2022/04/15 10:11:15;;;;;;;;;;;;;;;12.14;100.00;101665.41;5073292;28;20002;-79
2022/04/15 10:13:44;;;;;;;;;;;;;;;11.88;100.00;101682.75;5073938;28;20010;-78
2022/04/15 10:16:10;;;;;;;;;;;;;;;11.94;100.00;101676.88;5073773;28;19938;-79
2022/04/15 10:18:36;;;;;;;;;;;;;;;11.83;100.00;101681.63;5073668;28;19916;-78
2022/04/15 10:21:03;;;;;;;;;;;;;;;11.98;100.00;101684.09;5073458;28;20057;-76
2022/04/15 10:23:29;;;;;;;;;;;;;;;12.19;100.00;101692.91;5072450;28;19916;-76
2022/04/15 10:25:55;;;;;;;;;;;;;;;12.21;100.00;101716.75;5071960;28;20380;-75
2022/04/15 10:28:24;;;;;;;;;;;;;;;12.67;100.00;101707.22;5072821;28;19994;-75
2022/04/15 10:30:51;;;;;;;;;;;;;;;12.32;100.00;101735.69;5072607;28;20299;-75
2022/04/15 10:33:31;;;;;;;;;;;;;;;12.20;100.00;101746.66;5076015;28;20276;-77
2022/04/15 10:36:09;;;;;;;;;;;;;;;12.25;100.00;101733.66;5076437;28;19932;-75
2022/04/15 10:38:34;;;;;;;;;;;;;;;12.15;100.00;101743.81;5075611;28;19970;-74
2022/04/15 10:41:11;;;;;;;;;;;;;;;12.55;100.00;101729.66;5075365;28;19924;-75
2022/04/15 10:43:36;;;;;;;;;;;;;;;12.59;100.00;101743.00;5094410;28;19916;-74
2022/04/15 10:46:15;;;;;;;;;;;;;;;12.63;100.00;101758.13;5075199;28;19916;-75
2022/04/15 10:48:41;;;;;;;;;;;;;;;12.64;100.00;101752.91;5076908;28;19965;-78
2022/04/15 10:51:21;;;;;;;;;;;;;;;12.71;100.00;101759.38;5077124;28;19920;-78
2022/04/15 10:53:47;;;;;;;;;;;;;;;12.62;100.00;101777.50;5076711;28;19959;-76
2022/04/15 10:56:14;;;;;;;;;;;;;;;12.56;100.00;101794.88;5095246;28;19923;-79
2022/04/15 11:01:13;;;;;;;;;;;;;;;12.28;100.00;101816.53;5077763;28;20374;-78
2022/04/15 11:01:34;;;;;;;;;;;;;;;12.48;100.00;101800.69;5095687;28;19922;-80
2022/04/15 11:04:04;;;;;;;;;;;;;;;12.63;100.00;101803.06;5095071;28;19916;-78
2022/04/15 11:06:29;;;;;;;;;;;;;;;12.46;100.00;101824.38;5077387;28;20338;-78
2022/04/15 11:08:55;;;;;;;;;;;;;;;12.60;100.00;101824.06;5076997;28;19989;-79
2022/04/15 11:11:33;;;;;;;;;;;;;;;12.52;100.00;101823.72;5095469;28;19920;-79
2022/04/15 11:14:03;;;;;;;;;;;;;;;12.70;100.00;101803.38;5094783;28;19950;-78
2022/04/15 11:16:48;;;;;;;;;;;;;;;12.50;100.00;101834.22;5061045;28;19920;-79
2022/04/15 11:19:18;;;;;;;;;;;;;;;12.52;100.00;101835.22;5076881;28;19924;-79
2022/04/15 11:21:45;;;;;;;;;;;;;;;12.73;100.00;101826.41;5076831;28;19916;-78
2022/04/15 11:24:12;;;;;;;;;;;;;;;12.84;100.00;101822.47;5076686;28;20070;-78
2022/04/15 11:26:39;;;;;;;;;;;;;;;12.48;100.00;101849.13;5060190;28;19920;-78
2022/04/15 11:29:07;;;;;;;;;;;;;;;12.57;100.00;101835.41;5094559;28;19916;-80
2022/04/15 11:31:34;;;;;;;;;;;;;;;12.85;100.00;101837.50;5076705;28;19961;-77
2022/04/15 11:34:10;;;;;;;;;;;;;;;12.70;100.00;101832.44;5076538;28;19916;-80
2022/04/15 11:36:37;;;;;;;;;;;;;;;12.96;100.00;101835.31;5094692;28;19920;-78
2022/04/15 11:39:04;;;;;;;;;;;;;;;13.16;100.00;101832.56;5076517;28;19962;-78
2022/04/15 11:41:29;;;;;;;;;;;;;;;13.35;100.00;101824.59;5094618;28;19916;-81
2022/04/15 11:43:59;;;;;;;;;;;;;;;13.36;100.00;101847.56;5075412;28;19999;-79
2022/04/15 11:46:24;;;;;;;;;;;;;;;12.76;100.00;101884.69;5094409;28;19916;-78
2022/04/15 11:48:50;;;;;;;;;;;;;;;12.95;100.00;101856.41;5075344;28;19917;-77
2022/04/15 11:51:17;;;;;;;;;;;;;;;13.43;100.00;101848.72;5075828;28;20363;-77
2022/04/15 11:53:56;;;;;;;;;;;;;;;13.42;100.00;101865.41;5072386;28;19926;-78
2022/04/15 11:56:24;;;;;;;;;;;;;;;13.22;100.00;101864.56;5072480;28;19916;-76
2022/04/15 11:58:49;;;;;;;;;;;;;;;13.23;100.00;101864.63;5073607;28;19923;-78
2022/04/15 12:01:24;;;;;;;;;;;;;;;13.22;100.00;101857.56;5055804;28;19920;-77
2022/04/15 12:03:53;;;;;;;;;;;;;;;13.89;100.00;101837.28;5072213;28;21327;-78
2022/04/15 12:06:18;;;;;;;;;;;;;;;13.59;100.00;101869.63;5073606;28;19958;-77
2022/04/15 12:08:46;;;;;;;;;;;;;;;13.72;100.00;101844.56;5073275;28;19956;-77
2022/04/15 12:11:12;;;;;;;;;;;;;;;13.24;100.00;101884.06;5073772;28;19924;-79
2022/04/15 12:13:38;;;;;;;;;;;;;;;13.17;100.00;101872.31;5072008;28;19916;-80
2022/04/15 12:16:04;;;;;;;;;;;;;;;13.64;100.00;101854.84;5071772;28;19962;-80
2022/04/15 12:18:29;;;;;;;;;;;;;;;14.02;100.00;101853.63;5073195;28;19916;-78
2022/04/15 12:21:11;;;;;;;;;;;;;;;13.47;100.00;101890.34;5090343;22;19960;-79
2022/04/15 12:23:37;;;;;;;;;;;;;;;13.23;100.00;101893.72;5052731;28;20273;-79
2022/04/15 12:26:06;;;;;;;;;;;;;;;13.45;100.00;101874.41;5053735;28;19917;-78
2022/04/15 12:31:31;;;;;;;;;;;;;;;13.40;100.00;101885.63;5054212;28;20327;-80
2022/04/15 12:33:56;;;;;;;;;;;;;;;13.31;100.00;101877.28;5069380;28;20289;-79
2022/04/15 12:36:22;;;;;;;;;;;;;;;13.35;100.00;101863.38;5053906;28;19939;-79
2022/04/15 12:39:00;;;;;;;;;;;;;;;13.43;100.00;101865.47;5050608;28;19964;-77
2022/04/15 12:41:36;;;;;;;;;;;;;;;13.63;100.00;101871.56;5051874;28;19952;-77
2022/04/15 12:44:15;;;;;;;;;;;;;;;13.89;100.00;101862.84;5051923;28;19917;-77